Pilot No. 4 — WDA5463 — position and weather

sailwx.info

Track history (hours):
 
Tides and Currents Weather Stations Pressure Air Temp Water Temp Dewpoint Dewpoint Depression Visibility Wind Speed Wind Dir Waves Ship Positions

Pilot No. 4

Owner: P E P Inc, FORT LAUDERDALE, FL. More information available from US FCC via Universal Licensing System and Coast Guard Vessel Documentation Center.

Last reported at 2016-Dec-07 23:33 UTC. Time now 2016-Dec-08 00:17 UTC.
Position N 26°05' W 080°07'.

MMSI: 495270931.

Date/timePositionNaut miles runAvg speedWind from/ knotsBaromVisibWave heightAir tempDewpointWater temp
2016-Dec-07 23:33N 26°05' W 080°07'0 0.1
2016-Dec-07 22:33N 26°05' W 080°07'1 0.6
2016-Dec-07 21:10N 26°06' W 080°07'1 1.7
2016-Dec-07 20:33N 26°05' W 080°07'1 0.8
2016-Dec-07 19:20N 26°06' W 080°07'1 1.0
2016-Dec-07 18:33N 26°05' W 080°07'1 1.0
2016-Dec-07 17:33N 26°04' W 080°07'2 1.7
2016-Dec-07 16:33N 26°06' W 080°07'2 1.9
2016-Dec-07 15:33N 26°04' W 080°07'2 1.9
2016-Dec-07 14:33N 26°06' W 080°07'4 4.1
2016-Dec-07 13:33N 26°06' W 080°03'  
2016-Dec-05 00:07N 26°06' W 080°07'1 1.4
2016-Dec-04 23:33N 26°05' W 080°07'0 0.3
2016-Dec-04 22:33N 26°05' W 080°07'2 2.3
2016-Dec-04 21:32N 26°06' W 080°05'2 0.2
2016-Dec-04 11:33N 26°05' W 080°07'1 0.7
2016-Dec-04 10:33N 26°05' W 080°07'1 1.0
2016-Dec-04 09:33N 26°06' W 080°07'0 0.1
2016-Dec-04 02:24N 26°06' W 080°07'3 3.1
2016-Dec-04 01:34N 26°05' W 080°05'1 0.7
2016-Dec-04 00:33N 26°06' W 080°04'3 3.2
2016-Dec-03 23:33N 26°06' W 080°07'2 1.6
2016-Dec-03 22:33N 26°06' W 080°06'0 0.3
2016-Dec-03 21:33N 26°06' W 080°05'2 0.2
2016-Dec-03 13:30N 26°06' W 080°07'1 0.9
2016-Dec-03 12:33N 26°05' W 080°07'0 0.0
2016-Dec-03 11:33N 26°05' W 080°07'2 1.9
2016-Dec-03 10:33N 26°06' W 080°05'2 0.2
2016-Dec-03 03:33N 26°06' W 080°06'1 0.8
2016-Dec-03 02:27N 26°06' W 080°07'3 3.2
2016-Dec-03 01:33N 26°06' W 080°04'2 1.8
2016-Dec-03 00:33N 26°06' W 080°06'1 0.7
2016-Dec-02 23:33N 26°06' W 080°05'2 0.4
2016-Dec-02 18:33N 26°06' W 080°07'1 1.1
2016-Dec-02 17:33N 26°05' W 080°07'1 0.6
2016-Dec-02 16:32N 26°06' W 080°07'0 0.1
2016-Dec-02 14:33N 26°06' W 080°07'1 1.0
2016-Dec-02 13:34N 26°06' W 080°06'1 1.2
2016-Dec-02 12:33N 26°06' W 080°07'0 0.4
2016-Dec-02 11:33N 26°05' W 080°07'1 0.5
2016-Dec-02 10:33N 26°05' W 080°07'1 1.5
2016-Dec-02 09:33N 26°04' W 080°07'2 2.0
2016-Dec-02 08:33N 26°06' W 080°06'1 1.4
2016-Dec-02 07:33N 26°05' W 080°07'1 1.2
2016-Dec-02 06:18N 26°06' W 080°07'1 1.0
2016-Dec-02 05:33N 26°06' W 080°07'1 0.1
2016-Dec-01 19:31N 26°06' W 080°07'2 2.0
2016-Dec-01 18:33N 26°06' W 080°05'0 0.2
2016-Dec-01 17:33N 26°06' W 080°05'2 1.5
2016-Dec-01 16:33N 26°06' W 080°07'1 0.5
2016-Dec-01 15:33N 26°05' W 080°07'0 0.5
2016-Dec-01 14:33N 26°06' W 080°07'2 2.3
2016-Dec-01 13:33N 26°06' W 080°05'2 2.1
2016-Dec-01 12:33N 26°06' W 080°07'1 0.1
2016-Dec-01 03:17N 26°06' W 080°07'1 1.5
2016-Dec-01 02:33N 26°05' W 080°07'1 0.5
2016-Dec-01 01:33N 26°06' W 080°07'0 0.3
2016-Dec-01 00:33N 26°05' W 080°07'1 1.1
2016-Nov-30 23:34N 26°04' W 080°07'0 0.3
2016-Nov-30 22:33N 26°04' W 080°07'2 2.5
2016-Nov-30 21:33N 26°06' W 080°05'2 1.2
2016-Nov-30 19:33N 26°04' W 080°07'1 1.0
2016-Nov-30 18:33N 26°05' W 080°07'1 0.2
2016-Nov-30 15:22N 26°06' W 080°07'3 3.4
2016-Nov-30 14:33N 26°06' W 080°04'3 2.7
2016-Nov-30 13:33N 26°05' W 080°07'3 3.1
2016-Nov-30 12:33N 26°06' W 080°04'3 0.1
2016-Nov-28 22:33N 26°05' W 080°07'0 0.3
2016-Nov-28 21:33N 26°06' W 080°07'1 0.3
2016-Nov-28 19:17N 26°06' W 080°07'1 1.0
2016-Nov-28 18:33N 26°06' W 080°07'0 0.5
2016-Nov-28 17:33N 26°05' W 080°07'1 0.4
2016-Nov-28 15:15N 26°06' W 080°07'1 2.0
2016-Nov-28 14:33N 26°05' W 080°07'2 2.4
2016-Nov-28 13:33N 26°05' W 080°04'0 0.5
2016-Nov-28 12:33N 26°05' W 080°05'1 1.2
2016-Nov-28 11:33N 26°07' W 080°05'1 1.1
2016-Nov-28 10:33N 26°05' W 080°05'1 0.8
2016-Nov-28 09:33N 26°05' W 080°04'  
Track history (hours):
 
Tides and Currents Weather Stations Pressure Air Temp Water Temp Dewpoint Dewpoint Depression Visibility Wind Speed Wind Dir Waves Ship Positions

Pilot No. 4

Owner: P E P Inc, FORT LAUDERDALE, FL. More information available from US FCC via Universal Licensing System and Coast Guard Vessel Documentation Center.

Last reported at 2016-Dec-07 23:33 UTC. Time now 2016-Dec-08 00:17 UTC.
Position N 26°05' W 080°07'.

MMSI: 495270931.

Date/timePositionNaut miles runAvg speedWind from/ knotsBaromVisibWave heightAir tempDewpointWater temp
2016-Dec-07 23:33N 26°05' W 080°07'0 0.1
2016-Dec-07 22:33N 26°05' W 080°07'1 0.6
2016-Dec-07 21:10N 26°06' W 080°07'1 1.7
2016-Dec-07 20:33N 26°05' W 080°07'1 0.8
2016-Dec-07 19:20N 26°06' W 080°07'1 1.0
2016-Dec-07 18:33N 26°05' W 080°07'1 1.0
2016-Dec-07 17:33N 26°04' W 080°07'2 1.7
2016-Dec-07 16:33N 26°06' W 080°07'2 1.9
2016-Dec-07 15:33N 26°04' W 080°07'2 1.9
2016-Dec-07 14:33N 26°06' W 080°07'4 4.1
2016-Dec-07 13:33N 26°06' W 080°03'  
2016-Dec-05 00:07N 26°06' W 080°07'1 1.4
2016-Dec-04 23:33N 26°05' W 080°07'0 0.3
2016-Dec-04 22:33N 26°05' W 080°07'2 2.3
2016-Dec-04 21:32N 26°06' W 080°05'2 0.2
2016-Dec-04 11:33N 26°05' W 080°07'1 0.7
2016-Dec-04 10:33N 26°05' W 080°07'1 1.0
2016-Dec-04 09:33N 26°06' W 080°07'0 0.1
2016-Dec-04 02:24N 26°06' W 080°07'3 3.1
2016-Dec-04 01:34N 26°05' W 080°05'1 0.7
2016-Dec-04 00:33N 26°06' W 080°04'3 3.2
2016-Dec-03 23:33N 26°06' W 080°07'2 1.6
2016-Dec-03 22:33N 26°06' W 080°06'0 0.3
2016-Dec-03 21:33N 26°06' W 080°05'2 0.2
2016-Dec-03 13:30N 26°06' W 080°07'1 0.9
2016-Dec-03 12:33N 26°05' W 080°07'0 0.0
2016-Dec-03 11:33N 26°05' W 080°07'2 1.9
2016-Dec-03 10:33N 26°06' W 080°05'2 0.2
2016-Dec-03 03:33N 26°06' W 080°06'1 0.8
2016-Dec-03 02:27N 26°06' W 080°07'3 3.2
2016-Dec-03 01:33N 26°06' W 080°04'2 1.8
2016-Dec-03 00:33N 26°06' W 080°06'1 0.7
2016-Dec-02 23:33N 26°06' W 080°05'2 0.4
2016-Dec-02 18:33N 26°06' W 080°07'1 1.1
2016-Dec-02 17:33N 26°05' W 080°07'1 0.6
2016-Dec-02 16:32N 26°06' W 080°07'0 0.1
2016-Dec-02 14:33N 26°06' W 080°07'1 1.0
2016-Dec-02 13:34N 26°06' W 080°06'1 1.2
2016-Dec-02 12:33N 26°06' W 080°07'0 0.4
2016-Dec-02 11:33N 26°05' W 080°07'1 0.5
2016-Dec-02 10:33N 26°05' W 080°07'1 1.5
2016-Dec-02 09:33N 26°04' W 080°07'2 2.0
2016-Dec-02 08:33N 26°06' W 080°06'1 1.4
2016-Dec-02 07:33N 26°05' W 080°07'1 1.2
2016-Dec-02 06:18N 26°06' W 080°07'1 1.0
2016-Dec-02 05:33N 26°06' W 080°07'1 0.1
2016-Dec-01 19:31N 26°06' W 080°07'2 2.0
2016-Dec-01 18:33N 26°06' W 080°05'0 0.2
2016-Dec-01 17:33N 26°06' W 080°05'2 1.5
2016-Dec-01 16:33N 26°06' W 080°07'1 0.5
2016-Dec-01 15:33N 26°05' W 080°07'0 0.5
2016-Dec-01 14:33N 26°06' W 080°07'2 2.3
2016-Dec-01 13:33N 26°06' W 080°05'2 2.1
2016-Dec-01 12:33N 26°06' W 080°07'1 0.1
2016-Dec-01 03:17N 26°06' W 080°07'1 1.5
2016-Dec-01 02:33N 26°05' W 080°07'1 0.5
2016-Dec-01 01:33N 26°06' W 080°07'0 0.3
2016-Dec-01 00:33N 26°05' W 080°07'1 1.1
2016-Nov-30 23:34N 26°04' W 080°07'0 0.3
2016-Nov-30 22:33N 26°04' W 080°07'2 2.5
2016-Nov-30 21:33N 26°06' W 080°05'2 1.2
2016-Nov-30 19:33N 26°04' W 080°07'1 1.0
2016-Nov-30 18:33N 26°05' W 080°07'1 0.2
2016-Nov-30 15:22N 26°06' W 080°07'3 3.4
2016-Nov-30 14:33N 26°06' W 080°04'3 2.7
2016-Nov-30 13:33N 26°05' W 080°07'3 3.1
2016-Nov-30 12:33N 26°06' W 080°04'3 0.1
2016-Nov-28 22:33N 26°05' W 080°07'0 0.3
2016-Nov-28 21:33N 26°06' W 080°07'1 0.3
2016-Nov-28 19:17N 26°06' W 080°07'1 1.0
2016-Nov-28 18:33N 26°06' W 080°07'0 0.5
2016-Nov-28 17:33N 26°05' W 080°07'1 0.4
2016-Nov-28 15:15N 26°06' W 080°07'1 2.0
2016-Nov-28 14:33N 26°05' W 080°07'2 2.4
2016-Nov-28 13:33N 26°05' W 080°04'0 0.5
2016-Nov-28 12:33N 26°05' W 080°05'1 1.2
2016-Nov-28 11:33N 26°07' W 080°05'1 1.1
2016-Nov-28 10:33N 26°05' W 080°05'1 0.8
2016-Nov-28 09:33N 26°05' W 080°04'  

Dump ship's entire track history